createdAt,value
2023-04-26T00:00:07.376Z,4.95
2023-04-26T00:01:07.357Z,4.96
2023-04-26T00:02:07.373Z,5.01
2023-04-26T00:03:07.445Z,5.04
2023-04-26T00:04:07.689Z,5.09
2023-04-26T00:05:07.516Z,5.12
2023-04-26T00:06:07.273Z,5.16
2023-04-26T00:07:07.321Z,5.14
2023-04-26T00:08:07.251Z,5.16
2023-04-26T00:09:07.254Z,5.17
2023-04-26T00:10:07.285Z,5.19
2023-04-26T00:11:07.239Z,5.20
2023-04-26T00:12:07.286Z,5.20
2023-04-26T00:13:07.275Z,5.20
2023-04-26T00:14:07.189Z,5.16
2023-04-26T00:15:07.263Z,5.14
2023-04-26T00:16:07.243Z,5.10
2023-04-26T00:17:07.165Z,5.09
2023-04-26T00:18:07.208Z,5.07
2023-04-26T00:19:07.138Z,5.02
2023-04-26T00:20:07.139Z,5.01
2023-04-26T00:21:07.148Z,4.96
2023-04-26T00:22:07.164Z,4.95
2023-04-26T00:23:07.125Z,4.94
2023-04-26T00:24:07.112Z,4.89
2023-04-26T00:25:07.101Z,4.89
2023-04-26T00:26:07.043Z,4.86
2023-04-26T00:27:07.068Z,4.84
2023-04-26T00:28:07.055Z,4.83
2023-04-26T00:29:07.048Z,4.80
2023-04-26T00:30:07.008Z,4.80
2023-04-26T00:31:06.994Z,4.83
2023-04-26T00:32:07.091Z,4.80
2023-04-26T00:33:07.018Z,4.80
2023-04-26T00:34:06.958Z,4.80
2023-04-26T00:35:06.968Z,4.83
2023-04-26T00:36:06.953Z,4.86
2023-04-26T00:37:06.966Z,4.86
2023-04-26T00:38:06.913Z,4.88
2023-04-26T00:39:06.903Z,4.88
2023-04-26T00:40:06.931Z,4.86
2023-04-26T00:41:06.894Z,4.83
2023-04-26T00:42:06.887Z,4.83
2023-04-26T00:43:06.874Z,4.80
2023-04-26T00:44:06.868Z,4.80
2023-04-26T00:45:06.829Z,4.79
2023-04-26T00:46:06.865Z,4.79
2023-04-26T00:47:06.816Z,4.75
2023-04-26T00:48:07.016Z,4.76
2023-04-26T00:49:06.814Z,4.75
2023-04-26T00:50:06.778Z,4.76
2023-04-26T00:51:06.776Z,4.76
2023-04-26T00:52:06.752Z,4.75
2023-04-26T00:53:06.776Z,4.73
2023-04-26T00:54:06.740Z,4.67
2023-04-26T00:55:06.724Z,4.65
2023-04-26T00:56:06.830Z,4.64
2023-04-26T00:57:06.699Z,4.58
2023-04-26T00:58:06.730Z,4.57
2023-04-26T00:59:06.688Z,4.52
2023-04-26T01:00:06.672Z,4.47
2023-04-26T01:01:06.704Z,4.44
2023-04-26T01:02:06.703Z,4.43
2023-04-26T01:03:06.731Z,4.42
2023-04-26T01:04:06.781Z,4.36
2023-04-26T01:05:06.625Z,4.34
2023-04-26T01:06:06.634Z,4.34
2023-04-26T01:07:06.602Z,4.34
2023-04-26T01:08:06.599Z,4.36
2023-04-26T01:09:06.572Z,4.36
2023-04-26T01:10:06.586Z,4.37
2023-04-26T01:11:06.561Z,4.40
2023-04-26T01:12:06.544Z,4.43
2023-04-26T01:13:06.560Z,4.44
2023-04-26T01:14:06.518Z,4.50
2023-04-26T01:15:06.521Z,4.52
2023-04-26T01:16:06.496Z,4.52
2023-04-26T01:17:06.512Z,4.55
2023-04-26T01:18:06.541Z,4.55
2023-04-26T01:19:07.593Z,4.58
2023-04-26T01:20:06.450Z,4.61
2023-04-26T01:21:06.441Z,4.65
2023-04-26T01:22:06.426Z,4.69
2023-04-26T01:23:06.430Z,4.69
2023-04-26T01:24:06.399Z,4.72
2023-04-26T01:25:06.391Z,4.73
2023-04-26T01:26:06.407Z,4.73
2023-04-26T01:27:06.370Z,4.73
2023-04-26T01:28:06.436Z,4.72
2023-04-26T01:29:06.348Z,4.73
2023-04-26T01:30:06.334Z,4.75
2023-04-26T01:31:06.368Z,4.72
2023-04-26T01:32:06.322Z,4.73
2023-04-26T01:33:06.352Z,4.69
2023-04-26T01:34:06.340Z,4.69
2023-04-26T01:35:06.330Z,4.69
2023-04-26T01:36:06.266Z,4.65
2023-04-26T01:37:06.253Z,4.64
2023-04-26T01:38:06.282Z,4.59
2023-04-26T01:39:06.261Z,4.58
2023-04-26T01:40:06.221Z,4.57
2023-04-26T01:41:06.210Z,4.55
2023-04-26T01:42:06.209Z,4.57
2023-04-26T01:43:06.228Z,4.57
2023-04-26T01:44:06.198Z,4.55
2023-04-26T01:45:06.170Z,4.55
2023-04-26T01:46:06.200Z,4.55
2023-04-26T01:47:06.163Z,4.55
2023-04-26T01:48:06.172Z,4.54
2023-04-26T01:49:06.187Z,4.55
2023-04-26T01:50:06.111Z,4.55
2023-04-26T01:51:06.145Z,4.58
2023-04-26T01:52:06.093Z,4.59
2023-04-26T01:53:06.085Z,4.61
2023-04-26T01:54:06.078Z,4.61
2023-04-26T01:55:06.082Z,4.61
2023-04-26T01:56:06.057Z,4.61
2023-04-26T01:57:06.036Z,4.62
2023-04-26T01:58:06.030Z,4.62
2023-04-26T01:59:06.028Z,4.62
2023-04-26T02:00:06.011Z,4.62
2023-04-26T02:01:06.006Z,4.65
2023-04-26T02:02:06.089Z,4.64
2023-04-26T02:03:06.067Z,4.67
2023-04-26T02:04:05.982Z,4.64
2023-04-26T02:05:05.952Z,4.61
2023-04-26T02:06:05.965Z,4.61
2023-04-26T02:07:05.940Z,4.62
2023-04-26T02:08:05.908Z,4.61
2023-04-26T02:09:05.915Z,4.58
2023-04-26T02:10:05.905Z,4.59
2023-04-26T02:11:05.879Z,4.61
2023-04-26T02:12:05.934Z,4.61
2023-04-26T02:13:05.865Z,4.64
2023-04-26T02:14:05.850Z,4.64
2023-04-26T02:15:05.861Z,4.65
2023-04-26T02:16:05.870Z,4.59
2023-04-26T02:17:05.816Z,4.59
2023-04-26T02:18:05.916Z,4.59
2023-04-26T02:19:05.812Z,4.62
2023-04-26T02:20:05.792Z,4.65
2023-04-26T02:21:05.770Z,4.67
2023-04-26T02:22:05.789Z,4.69
2023-04-26T02:23:05.787Z,4.70
2023-04-26T02:24:05.744Z,4.72
2023-04-26T02:25:05.751Z,4.75
2023-04-26T02:26:05.761Z,4.75
2023-04-26T02:27:05.739Z,4.76
2023-04-26T02:28:05.735Z,4.76
2023-04-26T02:29:05.693Z,4.77
2023-04-26T02:30:05.681Z,4.79
2023-04-26T02:31:05.743Z,4.77
2023-04-26T02:32:05.661Z,4.79
2023-04-26T02:33:05.704Z,4.77
2023-04-26T02:34:05.631Z,4.77
2023-04-26T02:35:05.616Z,4.77
2023-04-26T02:36:05.619Z,4.76
2023-04-26T02:37:05.592Z,4.76
2023-04-26T02:38:05.600Z,4.73
2023-04-26T02:39:05.586Z,4.75
2023-04-26T02:40:05.566Z,4.72
2023-04-26T02:41:05.575Z,4.69
2023-04-26T02:42:05.584Z,4.67
2023-04-26T02:43:05.558Z,4.65
2023-04-26T02:44:05.536Z,4.62
2023-04-26T02:45:05.555Z,4.61
2023-04-26T02:46:05.527Z,4.59
2023-04-26T02:47:05.581Z,4.58
2023-04-26T02:48:05.521Z,4.57
2023-04-26T02:49:05.485Z,4.52
2023-04-26T02:50:05.476Z,4.51
2023-04-26T02:51:05.445Z,4.46
2023-04-26T02:52:05.452Z,4.46
2023-04-26T02:53:05.432Z,4.46
2023-04-26T02:54:06.940Z,4.47
2023-04-26T02:55:05.424Z,4.51
2023-04-26T02:56:05.397Z,4.50
2023-04-26T02:57:05.404Z,4.50
2023-04-26T02:58:05.386Z,4.51
2023-04-26T02:59:05.343Z,4.54
2023-04-26T03:00:05.350Z,4.51
2023-04-26T03:01:05.403Z,4.54
2023-04-26T03:02:05.340Z,4.50
2023-04-26T03:03:05.485Z,4.50
2023-04-26T03:04:05.381Z,4.47
2023-04-26T03:05:05.307Z,4.50
2023-04-26T03:06:05.269Z,4.54
2023-04-26T03:07:05.262Z,4.57
2023-04-26T03:08:05.302Z,4.57
2023-04-26T03:09:05.236Z,4.59
2023-04-26T03:10:05.231Z,4.59
2023-04-26T03:11:05.237Z,4.59
2023-04-26T03:12:05.218Z,4.62
2023-04-26T03:13:05.215Z,4.55
2023-04-26T03:14:05.191Z,4.52
2023-04-26T03:15:05.179Z,4.54
2023-04-26T03:16:05.191Z,4.55
2023-04-26T03:17:05.182Z,4.61
2023-04-26T03:18:05.187Z,4.62
2023-04-26T03:19:05.124Z,4.64
2023-04-26T03:20:05.121Z,4.65
2023-04-26T03:21:05.126Z,4.69
2023-04-26T03:22:05.099Z,4.70
2023-04-26T03:23:05.097Z,4.70
2023-04-26T03:24:05.073Z,4.67
2023-04-26T03:25:05.168Z,4.67
2023-04-26T03:26:05.058Z,4.67
2023-04-26T03:27:05.070Z,4.69
2023-04-26T03:28:05.060Z,4.70
2023-04-26T03:29:05.025Z,4.72
2023-04-26T03:30:05.031Z,4.72
2023-04-26T03:31:05.012Z,4.72
2023-04-26T03:32:05.074Z,4.72
2023-04-26T03:33:05.087Z,4.69
2023-04-26T03:34:04.957Z,4.65
2023-04-26T03:35:04.967Z,4.64
2023-04-26T03:36:04.948Z,4.62
2023-04-26T03:37:04.949Z,4.58
2023-04-26T03:38:04.955Z,4.57
2023-04-26T03:39:04.910Z,4.54
2023-04-26T03:40:04.909Z,4.51
2023-04-26T03:41:04.930Z,4.50
2023-04-26T03:42:04.879Z,4.46
2023-04-26T03:43:04.872Z,4.43
2023-04-26T03:44:04.888Z,4.43
2023-04-26T03:45:04.858Z,4.40
2023-04-26T03:46:04.920Z,4.39
2023-04-26T03:47:04.838Z,4.36
2023-04-26T03:48:04.875Z,4.34
2023-04-26T03:49:04.826Z,4.34
2023-04-26T03:50:04.801Z,4.29
2023-04-26T03:51:04.780Z,4.28
2023-04-26T03:52:04.815Z,4.28
2023-04-26T03:53:04.763Z,4.28
2023-04-26T03:54:04.793Z,4.28
2023-04-26T03:55:04.738Z,4.28
2023-04-26T03:56:04.723Z,4.26
2023-04-26T03:57:04.749Z,4.26
2023-04-26T03:58:04.735Z,4.26
2023-04-26T03:59:04.736Z,4.25
2023-04-26T04:00:04.674Z,4.21
2023-04-26T04:01:04.673Z,4.19
2023-04-26T04:02:04.686Z,4.18
2023-04-26T04:03:04.731Z,4.18
2023-04-26T04:04:04.988Z,4.18
2023-04-26T04:05:04.757Z,4.18
2023-04-26T04:06:04.631Z,4.16
2023-04-26T04:07:04.624Z,4.16
2023-04-26T04:08:04.734Z,4.16
2023-04-26T04:09:04.619Z,4.15
2023-04-26T04:10:04.586Z,4.15
2023-04-26T04:11:04.588Z,4.14
2023-04-26T04:12:04.538Z,4.10
2023-04-26T04:13:04.545Z,4.08
2023-04-26T04:14:04.548Z,4.07
2023-04-26T04:15:04.555Z,4.07
2023-04-26T04:16:04.559Z,4.06
2023-04-26T04:17:04.491Z,4.06
2023-04-26T04:18:04.491Z,4.04
2023-04-26T04:19:04.509Z,4.04
2023-04-26T04:20:04.459Z,4.03
2023-04-26T04:21:04.471Z,4.01
2023-04-26T04:22:04.440Z,4.03
2023-04-26T04:23:04.532Z,4.01
2023-04-26T04:24:04.431Z,4.00
2023-04-26T04:25:04.406Z,3.94
2023-04-26T04:26:04.418Z,3.90
2023-04-26T04:27:04.389Z,3.88
2023-04-26T04:28:04.374Z,3.86
2023-04-26T04:29:04.389Z,3.88
2023-04-26T04:30:04.350Z,3.86
2023-04-26T04:31:04.413Z,3.86
2023-04-26T04:32:07.337Z,3.86
2023-04-26T04:33:04.351Z,3.83
2023-04-26T04:34:04.330Z,3.85
2023-04-26T04:35:04.305Z,3.86
2023-04-26T04:36:04.293Z,3.88
2023-04-26T04:37:04.333Z,3.89
2023-04-26T04:38:04.343Z,3.94
2023-04-26T04:39:04.264Z,3.96
2023-04-26T04:40:04.254Z,3.97
2023-04-26T04:41:04.266Z,4.01
2023-04-26T04:42:04.228Z,4.03
2023-04-26T04:43:04.211Z,4.04
2023-04-26T04:44:04.226Z,4.08
2023-04-26T04:45:04.174Z,4.08
2023-04-26T04:46:04.210Z,4.08
2023-04-26T04:47:04.177Z,4.12
2023-04-26T04:48:04.202Z,4.12
2023-04-26T04:49:04.151Z,4.14
2023-04-26T04:50:04.138Z,4.14
2023-04-26T04:51:04.172Z,4.16
2023-04-26T04:52:04.123Z,4.18
2023-04-26T04:53:04.117Z,4.19
2023-04-26T04:54:04.086Z,4.19
2023-04-26T04:55:04.085Z,4.21
2023-04-26T04:56:04.067Z,4.22
2023-04-26T04:57:04.054Z,4.24
2023-04-26T04:58:04.076Z,4.26
2023-04-26T04:59:04.032Z,4.26
2023-04-26T05:00:04.027Z,4.29
2023-04-26T05:01:04.009Z,4.28
2023-04-26T05:02:04.077Z,4.29
2023-04-26T05:03:04.171Z,4.29
2023-04-26T05:04:04.131Z,4.32
2023-04-26T05:05:03.981Z,4.33
2023-04-26T05:06:03.965Z,4.36
2023-04-26T05:07:03.938Z,4.34
2023-04-26T05:08:03.938Z,4.39
2023-04-26T05:09:03.919Z,4.40
2023-04-26T05:10:03.939Z,4.42
2023-04-26T05:11:03.908Z,4.39
2023-04-26T05:12:03.892Z,4.34
2023-04-26T05:13:03.896Z,4.33
2023-04-26T05:14:03.873Z,4.33
2023-04-26T05:15:03.864Z,4.36
2023-04-26T05:16:03.896Z,4.36
2023-04-26T05:17:03.829Z,4.37
2023-04-26T05:18:03.913Z,4.40
2023-04-26T05:19:03.804Z,4.42
2023-04-26T05:20:04.335Z,4.43
2023-04-26T05:21:03.786Z,4.44
2023-04-26T05:22:03.795Z,4.46
2023-04-26T05:23:03.797Z,4.47
2023-04-26T05:24:03.745Z,4.47
2023-04-26T05:25:03.768Z,4.50
2023-04-26T05:26:03.723Z,4.51
2023-04-26T05:27:03.740Z,4.52
2023-04-26T05:28:03.727Z,4.54
2023-04-26T05:29:03.734Z,4.57
2023-04-26T05:30:03.691Z,4.58
2023-04-26T05:31:03.688Z,4.59
2023-04-26T05:32:03.821Z,4.59
2023-04-26T05:33:03.735Z,4.62
2023-04-26T05:34:03.652Z,4.64
2023-04-26T05:35:03.651Z,4.65
2023-04-26T05:36:03.622Z,4.69
2023-04-26T05:37:03.655Z,4.72
2023-04-26T05:38:03.621Z,4.73
2023-04-26T05:39:03.596Z,4.75
2023-04-26T05:40:03.580Z,4.77
2023-04-26T05:41:54.764Z,4.84
2023-04-26T05:42:55.729Z,4.88
2023-04-26T05:43:55.794Z,4.92
2023-04-26T05:44:55.706Z,4.96
2023-04-26T05:45:55.832Z,4.98
2023-04-26T05:46:55.708Z,4.99
2023-04-26T05:47:55.717Z,5.01
2023-04-26T05:48:55.672Z,5.02
2023-04-26T05:49:55.672Z,5.07
2023-04-26T05:50:55.640Z,5.10
2023-04-26T05:51:55.659Z,5.14
2023-04-26T05:52:55.633Z,5.16
2023-04-26T05:53:55.624Z,5.17
2023-04-26T05:54:55.599Z,5.17
2023-04-26T05:55:55.597Z,5.20
2023-04-26T05:56:57.844Z,5.25
2023-04-26T05:57:55.635Z,5.28
2023-04-26T05:58:55.566Z,5.30
2023-04-26T05:59:55.541Z,5.31
2023-04-26T06:00:55.518Z,5.32
2023-04-26T06:01:55.604Z,5.35
2023-04-26T06:02:55.652Z,5.38
2023-04-26T06:03:59.066Z,5.38
2023-04-26T06:04:55.594Z,5.40
2023-04-26T06:05:55.525Z,5.45
2023-04-26T06:06:55.485Z,5.48
2023-04-26T06:07:55.467Z,5.52
2023-04-26T06:08:55.526Z,5.55
2023-04-26T06:09:55.433Z,5.60
2023-04-26T06:10:55.448Z,5.66
2023-04-26T06:11:55.436Z,5.70
2023-04-26T06:12:55.394Z,5.74
2023-04-26T06:13:55.579Z,5.82
2023-04-26T06:14:55.375Z,5.92
2023-04-26T06:15:55.370Z,5.98
2023-04-26T06:16:55.426Z,5.98
2023-04-26T06:17:55.367Z,6.03
2023-04-26T06:18:55.334Z,6.03
2023-04-26T06:19:55.318Z,6.03
2023-04-26T06:20:55.307Z,6.04
2023-04-26T06:21:55.486Z,6.03
2023-04-26T06:22:55.290Z,6.00
2023-04-26T06:23:55.580Z,5.98
2023-04-26T06:24:55.278Z,5.96
2023-04-26T06:25:55.258Z,6.00
2023-04-26T06:26:55.278Z,6.00
2023-04-26T06:27:55.258Z,5.98
2023-04-26T06:28:55.230Z,6.03
2023-04-26T06:29:55.225Z,6.04
2023-04-26T06:30:55.254Z,6.06
2023-04-26T06:31:55.209Z,6.09
2023-04-26T06:32:55.237Z,6.11
2023-04-26T06:33:55.415Z,6.11
2023-04-26T06:34:55.165Z,6.18
2023-04-26T06:35:55.148Z,6.29
2023-04-26T06:36:55.212Z,6.35
2023-04-26T06:37:55.134Z,6.35
2023-04-26T06:38:55.129Z,6.33
2023-04-26T06:39:55.110Z,6.40
2023-04-26T06:40:55.097Z,6.43
2023-04-26T06:41:55.102Z,6.46
2023-04-26T06:42:55.083Z,6.47
2023-04-26T06:43:55.417Z,6.48
2023-04-26T06:44:55.051Z,6.53
2023-04-26T06:45:55.067Z,6.56
2023-04-26T06:46:55.046Z,6.59
2023-04-26T06:47:55.038Z,6.65
2023-04-26T06:48:55.013Z,6.69
2023-04-26T06:49:55.021Z,6.77
2023-04-26T06:50:54.996Z,6.83
2023-04-26T06:51:55.007Z,6.86
2023-04-26T06:52:54.976Z,6.90
2023-04-26T06:53:55.116Z,6.91
2023-04-26T06:54:57.567Z,7.02
2023-04-26T06:55:54.939Z,7.07
2023-04-26T06:56:54.989Z,7.16
2023-04-26T06:57:54.951Z,7.22
2023-04-26T06:58:54.905Z,7.27
2023-04-26T06:59:54.891Z,7.34
2023-04-26T07:00:54.903Z,7.34
2023-04-26T07:01:54.956Z,7.38
2023-04-26T07:02:54.964Z,7.37
2023-04-26T07:03:55.138Z,7.29
2023-04-26T07:04:55.014Z,7.24
2023-04-26T07:05:54.825Z,7.15
2023-04-26T07:06:54.829Z,7.09
2023-04-26T07:07:54.798Z,7.05
2023-04-26T07:08:54.909Z,7.04
2023-04-26T07:09:54.788Z,7.02
2023-04-26T07:10:54.767Z,7.08
2023-04-26T07:11:54.777Z,7.12
2023-04-26T07:12:54.752Z,7.17
2023-04-26T07:13:54.940Z,7.19
2023-04-26T07:14:54.730Z,7.12
2023-04-26T07:15:54.747Z,7.12
2023-04-26T07:16:54.712Z,7.12
2023-04-26T07:17:54.743Z,7.07
2023-04-26T07:18:54.674Z,7.02
2023-04-26T07:19:56.235Z,7.04
2023-04-26T07:20:54.664Z,7.05
2023-04-26T07:21:54.649Z,7.07
2023-04-26T07:22:54.650Z,7.09
2023-04-26T07:23:54.963Z,7.04
2023-04-26T07:24:54.631Z,6.99
2023-04-26T07:25:55.768Z,6.98
2023-04-26T07:26:54.610Z,6.97
2023-04-26T07:27:54.632Z,6.97
2023-04-26T07:28:54.569Z,6.97
2023-04-26T07:29:54.568Z,6.95
2023-04-26T07:30:54.559Z,6.98
2023-04-26T07:31:54.535Z,7.02
2023-04-26T07:32:54.635Z,7.08
2023-04-26T07:33:54.826Z,7.17
2023-04-26T07:34:54.508Z,7.23
2023-04-26T07:35:54.491Z,7.31
2023-04-26T07:36:54.483Z,7.35
2023-04-26T07:37:54.497Z,7.41
2023-04-26T07:38:54.462Z,7.52
2023-04-26T07:39:54.462Z,7.58
2023-04-26T07:40:54.456Z,7.60
2023-04-26T07:41:54.434Z,7.62
2023-04-26T07:42:54.441Z,7.71
2023-04-26T07:43:54.670Z,7.77
2023-04-26T07:44:54.400Z,7.85
2023-04-26T07:45:54.468Z,7.90
2023-04-26T07:46:54.362Z,7.93
2023-04-26T07:47:54.427Z,8.02
2023-04-26T07:48:54.366Z,8.07
2023-04-26T07:49:54.338Z,8.10
2023-04-26T07:50:54.336Z,8.21
2023-04-26T07:51:54.333Z,8.28
2023-04-26T07:52:54.332Z,8.22
2023-04-26T07:53:54.567Z,8.32
2023-04-26T07:54:54.303Z,8.35
2023-04-26T07:55:54.269Z,8.40
2023-04-26T07:56:54.262Z,8.36
2023-04-26T07:57:54.302Z,8.37
2023-04-26T07:58:54.262Z,8.42
2023-04-26T07:59:54.224Z,8.42
2023-04-26T08:00:54.226Z,8.42
2023-04-26T08:01:54.283Z,8.39
2023-04-26T08:02:54.496Z,8.40
2023-04-26T08:03:54.557Z,8.47
2023-04-26T08:04:54.319Z,8.54
2023-04-26T08:05:54.460Z,8.60
2023-04-26T08:06:54.161Z,8.66
2023-04-26T08:07:54.155Z,8.73
2023-04-26T08:08:54.146Z,8.72
2023-04-26T08:09:54.133Z,8.78
2023-04-26T08:10:54.117Z,8.86
2023-04-26T08:11:54.164Z,8.93
2023-04-26T08:12:54.114Z,8.97
2023-04-26T08:13:54.384Z,8.97
2023-04-26T08:14:54.068Z,8.97
2023-04-26T08:15:54.070Z,8.99
2023-04-26T08:16:54.128Z,9.02
2023-04-26T08:17:54.137Z,9.02
2023-04-26T08:18:54.046Z,9.04
2023-04-26T08:19:54.019Z,9.05
2023-04-26T08:20:54.007Z,9.12
2023-04-26T08:21:53.992Z,9.21
2023-04-26T08:22:54.019Z,9.27
2023-04-26T08:23:54.196Z,9.24
2023-04-26T08:24:53.958Z,9.25
2023-04-26T08:25:53.952Z,9.24
2023-04-26T08:26:54.088Z,9.23
2023-04-26T08:27:53.944Z,9.25
2023-04-26T08:28:53.940Z,9.16
2023-04-26T08:29:53.916Z,9.06
2023-04-26T08:30:53.917Z,9.06
2023-04-26T08:31:53.882Z,8.99
2023-04-26T08:32:53.936Z,8.93
2023-04-26T08:33:54.326Z,8.93
2023-04-26T08:34:53.865Z,8.94
2023-04-26T08:35:53.842Z,8.99
2023-04-26T08:36:53.844Z,9.01
2023-04-26T08:37:53.833Z,9.05
2023-04-26T08:38:53.807Z,8.99
2023-04-26T08:39:53.791Z,8.96
2023-04-26T08:40:53.777Z,8.93
2023-04-26T08:41:53.775Z,8.97
2023-04-26T08:42:53.791Z,8.96
2023-04-26T08:43:53.966Z,8.97
2023-04-26T08:44:53.745Z,8.99
2023-04-26T08:45:53.751Z,9.06
2023-04-26T08:46:53.762Z,9.15
2023-04-26T08:47:53.722Z,9.25
2023-04-26T08:48:53.703Z,9.32
2023-04-26T08:49:53.681Z,9.35
2023-04-26T08:50:53.684Z,9.34
2023-04-26T08:51:53.675Z,9.31
2023-04-26T08:52:53.676Z,9.32
2023-04-26T08:53:53.905Z,9.34
2023-04-26T08:54:53.633Z,9.35
2023-04-26T08:55:53.625Z,9.39
2023-04-26T08:56:53.616Z,9.39
2023-04-26T08:57:53.624Z,9.40
2023-04-26T08:58:53.586Z,9.39
2023-04-26T08:59:53.598Z,9.39
2023-04-26T09:00:53.573Z,9.46
2023-04-26T09:01:53.612Z,9.53
2023-04-26T09:02:53.976Z,9.66
2023-04-26T09:03:53.839Z,9.76
2023-04-26T09:04:53.614Z,9.76
2023-04-26T09:05:53.511Z,9.76
2023-04-26T09:06:53.515Z,9.75
2023-04-26T09:07:53.514Z,9.73
2023-04-26T09:08:53.478Z,9.75
2023-04-26T09:09:53.461Z,9.76
2023-04-26T09:10:53.476Z,9.76
2023-04-26T09:11:53.447Z,9.75
2023-04-26T09:12:53.680Z,9.73
2023-04-26T09:13:53.622Z,9.70
2023-04-26T09:14:53.459Z,9.75
2023-04-26T09:15:53.469Z,9.81
2023-04-26T09:16:53.396Z,9.86
2023-04-26T09:17:53.512Z,9.89
2023-04-26T09:18:53.507Z,9.83
2023-04-26T09:19:53.381Z,9.79
2023-04-26T09:20:53.347Z,9.82
2023-04-26T09:21:53.342Z,9.88
2023-04-26T09:22:53.353Z,10.01
2023-04-26T09:23:53.316Z,10.14
2023-04-26T09:24:53.304Z,10.21
2023-04-26T09:25:53.300Z,10.26
2023-04-26T09:26:53.279Z,10.34
2023-04-26T09:27:53.293Z,10.43
2023-04-26T09:28:53.462Z,10.58
2023-04-26T09:29:53.268Z,10.65
2023-04-26T09:30:53.255Z,10.73
2023-04-26T09:31:53.292Z,10.78
2023-04-26T09:32:53.287Z,10.89
2023-04-26T09:33:53.201Z,10.98
2023-04-26T09:34:53.195Z,11.13
2023-04-26T09:35:53.192Z,11.21
2023-04-26T09:36:53.194Z,11.27
2023-04-26T09:37:59.256Z,11.35
2023-04-26T09:38:53.300Z,11.24
2023-04-26T09:39:53.133Z,11.20
2023-04-26T09:40:53.124Z,11.27
2023-04-26T09:41:53.116Z,11.24
2023-04-26T09:42:53.119Z,11.09
2023-04-26T09:43:53.091Z,11.02
2023-04-26T09:44:53.075Z,10.99
2023-04-26T09:45:53.129Z,11.06
2023-04-26T09:46:53.105Z,11.11
2023-04-26T09:47:53.086Z,11.10
2023-04-26T09:48:53.353Z,11.13
2023-04-26T09:49:53.033Z,11.01
2023-04-26T09:50:53.059Z,10.92
2023-04-26T09:51:53.007Z,10.84
2023-04-26T09:52:53.007Z,10.80
2023-04-26T09:53:54.407Z,10.81
2023-04-26T09:54:53.833Z,10.80
2023-04-26T09:55:52.950Z,10.68
2023-04-26T09:56:52.958Z,10.55
2023-04-26T09:57:52.946Z,10.55
2023-04-26T09:58:53.291Z,10.47
2023-04-26T09:59:55.019Z,10.34
2023-04-26T10:00:52.947Z,10.25
2023-04-26T10:01:52.899Z,10.19
2023-04-26T10:02:52.957Z,10.04
2023-04-26T10:03:53.171Z,9.94
2023-04-26T10:04:52.942Z,9.85
2023-04-26T10:05:52.838Z,9.66
2023-04-26T10:06:52.843Z,9.39
2023-04-26T10:07:52.841Z,9.10
2023-04-26T10:08:52.998Z,8.81
2023-04-26T10:09:52.808Z,8.69
2023-04-26T10:10:52.801Z,8.62
2023-04-26T10:11:52.792Z,8.55
2023-04-26T10:12:52.794Z,8.54
2023-04-26T10:13:52.765Z,8.53
2023-04-26T10:14:52.747Z,8.47
2023-04-26T10:15:52.730Z,8.42
2023-04-26T10:16:52.763Z,8.39
2023-04-26T10:17:52.751Z,8.39
2023-04-26T10:18:52.918Z,8.40
2023-04-26T10:19:52.700Z,8.35
2023-04-26T10:20:52.678Z,8.33
2023-04-26T10:21:52.669Z,8.32
2023-04-26T10:22:52.690Z,8.25
2023-04-26T10:23:52.656Z,8.12
2023-04-26T10:24:52.647Z,8.07
2023-04-26T10:25:52.634Z,8.03
2023-04-26T10:26:52.628Z,7.99
2023-04-26T10:27:52.615Z,8.00
2023-04-26T10:28:56.162Z,7.90
2023-04-26T10:29:52.587Z,7.84
2023-04-26T10:30:52.569Z,7.78
2023-04-26T10:31:52.612Z,7.75
2023-04-26T10:32:52.668Z,7.75
2023-04-26T10:33:52.556Z,7.79
2023-04-26T10:34:52.532Z,7.85
2023-04-26T10:35:52.509Z,7.93
2023-04-26T10:36:52.500Z,8.00
2023-04-26T10:37:52.509Z,8.12
2023-04-26T10:38:52.692Z,8.28
2023-04-26T10:39:52.486Z,8.39
2023-04-26T10:40:53.425Z,8.48
2023-04-26T10:41:52.455Z,8.58
2023-04-26T10:42:52.457Z,8.65
2023-04-26T10:43:52.693Z,8.72
2023-04-26T10:44:52.436Z,8.76
2023-04-26T10:45:52.544Z,8.84
2023-04-26T10:46:52.397Z,8.88
2023-04-26T10:47:52.432Z,8.93
2023-04-26T10:48:52.547Z,8.94
2023-04-26T10:49:52.365Z,8.94
2023-04-26T10:50:52.358Z,8.91
2023-04-26T10:51:52.341Z,8.93
2023-04-26T10:52:52.360Z,8.88
2023-04-26T10:53:52.562Z,8.90
2023-04-26T10:54:52.319Z,8.87
2023-04-26T10:55:52.306Z,8.87
2023-04-26T10:56:52.286Z,8.87
2023-04-26T10:57:52.289Z,8.83
2023-04-26T10:58:52.262Z,8.79
2023-04-26T10:59:54.838Z,8.76
2023-04-26T11:00:52.258Z,8.71
2023-04-26T11:01:52.387Z,8.60
2023-04-26T11:02:53.441Z,8.54
2023-04-26T11:03:52.459Z,8.53
2023-04-26T11:04:52.304Z,8.55
2023-04-26T11:05:52.201Z,8.57
2023-04-26T11:06:52.192Z,8.58
2023-04-26T11:07:52.179Z,8.65
2023-04-26T11:08:52.359Z,8.72
2023-04-26T11:09:52.160Z,8.72
2023-04-26T11:10:52.137Z,8.78
2023-04-26T11:11:52.128Z,8.81
2023-04-26T11:12:52.146Z,8.86
2023-04-26T11:13:52.108Z,8.86
2023-04-26T11:14:52.094Z,8.91
2023-04-26T11:15:52.667Z,8.97
2023-04-26T11:16:52.077Z,9.04
2023-04-26T11:17:52.146Z,9.02
2023-04-26T11:18:52.223Z,9.01
2023-04-26T11:19:52.040Z,8.97
2023-04-26T11:20:52.027Z,9.01
2023-04-26T11:21:52.353Z,9.02
2023-04-26T11:22:52.018Z,8.97
2023-04-26T11:23:51.995Z,9.01
2023-04-26T11:24:51.984Z,9.09
2023-04-26T11:25:51.989Z,9.18
2023-04-26T11:26:51.962Z,9.30
2023-04-26T11:27:51.975Z,9.32
2023-04-26T11:28:52.144Z,9.20
2023-04-26T11:29:51.926Z,9.27
2023-04-26T11:30:51.922Z,9.39
2023-04-26T11:31:51.989Z,9.57
2023-04-26T11:32:51.918Z,9.70
2023-04-26T11:33:51.909Z,9.86
2023-04-26T11:34:51.871Z,10.06
2023-04-26T11:35:51.870Z,10.32
2023-04-26T11:36:51.850Z,10.46
2023-04-26T11:37:51.851Z,10.62
2023-04-26T11:38:51.991Z,10.73
2023-04-26T11:39:51.818Z,10.74
2023-04-26T11:40:51.810Z,10.66
2023-04-26T11:41:57.833Z,10.56
2023-04-26T11:42:51.782Z,10.46
2023-04-26T11:43:51.818Z,10.40
2023-04-26T11:44:51.774Z,10.28
2023-04-26T11:45:51.773Z,10.18
2023-04-26T11:46:51.764Z,10.07
2023-04-26T11:47:51.785Z,10.03
2023-04-26T11:48:51.902Z,10.01
2023-04-26T11:49:51.754Z,9.88
2023-04-26T11:50:51.730Z,9.81
2023-04-26T11:51:51.702Z,9.71
2023-04-26T11:52:51.729Z,9.71
2023-04-26T11:53:51.733Z,9.71
2023-04-26T11:54:51.680Z,9.75
2023-04-26T11:55:51.673Z,9.68
2023-04-26T11:56:51.661Z,9.70
2023-04-26T11:57:51.628Z,9.76
2023-04-26T11:58:51.901Z,9.86
2023-04-26T11:59:51.627Z,9.99
2023-04-26T12:00:51.672Z,10.06
2023-04-26T12:01:51.640Z,10.14
2023-04-26T12:02:51.819Z,10.17
2023-04-26T12:03:51.784Z,10.24
2023-04-26T12:04:51.737Z,10.34
2023-04-26T12:05:51.579Z,10.55
2023-04-26T12:06:51.539Z,10.71
2023-04-26T12:07:51.529Z,10.78
2023-04-26T12:08:51.908Z,10.88
2023-04-26T12:09:51.496Z,10.94
2023-04-26T12:10:51.489Z,11.01
2023-04-26T12:11:51.504Z,11.13
2023-04-26T12:12:51.494Z,11.21
2023-04-26T12:13:51.514Z,11.28
2023-04-26T12:14:51.446Z,11.31
2023-04-26T12:15:51.456Z,11.29
2023-04-26T12:16:51.493Z,11.25
2023-04-26T12:17:51.512Z,11.25
2023-04-26T12:18:51.449Z,11.21
2023-04-26T12:19:51.392Z,11.19
2023-04-26T12:20:51.411Z,11.17
2023-04-26T12:21:51.362Z,11.19
2023-04-26T12:22:51.373Z,11.25
2023-04-26T12:23:51.379Z,11.44
2023-04-26T12:24:51.371Z,11.65
2023-04-26T12:25:51.330Z,11.82
2023-04-26T12:26:51.316Z,11.85
2023-04-26T12:27:51.306Z,11.94
2023-04-26T12:28:51.314Z,11.96
2023-04-26T12:29:51.304Z,11.90
2023-04-26T12:30:51.276Z,11.80
2023-04-26T12:31:51.308Z,11.77
2023-04-26T12:32:51.547Z,11.65
2023-04-26T12:33:51.264Z,11.46
2023-04-26T12:34:51.242Z,11.28
2023-04-26T12:35:51.241Z,11.17
2023-04-26T12:36:51.223Z,11.17
2023-04-26T12:37:52.162Z,11.13
2023-04-26T12:38:51.272Z,11.09
2023-04-26T12:39:51.181Z,11.06
2023-04-26T12:40:51.179Z,11.09
2023-04-26T12:41:51.187Z,11.17
2023-04-26T12:42:51.153Z,11.27
2023-04-26T12:43:51.155Z,11.34
2023-04-26T12:44:51.236Z,11.44
2023-04-26T12:45:51.132Z,11.64
2023-04-26T12:46:51.097Z,11.72
2023-04-26T12:47:51.128Z,11.85
2023-04-26T12:48:51.118Z,11.93
2023-04-26T12:49:51.059Z,11.89
2023-04-26T12:50:51.332Z,11.86
2023-04-26T12:51:51.034Z,11.78
2023-04-26T12:52:51.008Z,11.70
2023-04-26T12:53:51.060Z,11.71
2023-04-26T12:54:51.008Z,11.75
2023-04-26T12:55:50.998Z,11.70
2023-04-26T12:56:50.998Z,11.70
2023-04-26T12:57:50.969Z,11.70
2023-04-26T12:58:50.980Z,11.67
2023-04-26T12:59:50.971Z,11.72
2023-04-26T13:00:50.929Z,11.82
2023-04-26T13:01:51.042Z,11.96
2023-04-26T13:02:51.013Z,11.96
2023-04-26T13:03:51.144Z,11.96
2023-04-26T13:04:51.118Z,12.08
2023-04-26T13:05:50.892Z,12.05
2023-04-26T13:06:50.881Z,12.11
2023-04-26T13:07:50.885Z,12.20
2023-04-26T13:08:50.854Z,12.24
2023-04-26T13:09:50.848Z,12.46
2023-04-26T13:10:50.822Z,12.63
2023-04-26T13:11:50.806Z,12.78
2023-04-26T13:12:50.794Z,12.84
2023-04-26T13:13:50.811Z,13.02
2023-04-26T13:14:50.775Z,13.18